createdAt,value
2022-09-17T00:01:07.416Z,24.10
2022-09-17T00:03:35.148Z,24.10
2022-09-17T00:06:06.971Z,24.10
2022-09-17T00:08:35.488Z,24.10
2022-09-17T00:11:17.887Z,24.20
2022-09-17T00:13:45.043Z,24.10
2022-09-17T00:16:12.423Z,24.00
2022-09-17T00:18:41.892Z,24.10
2022-09-17T00:21:17.008Z,24.00
2022-09-17T00:23:44.119Z,24.00
2022-09-17T00:26:10.985Z,24.00
2022-09-17T00:28:37.728Z,24.00
2022-09-17T00:31:08.951Z,24.00
2022-09-17T00:33:35.804Z,23.90
2022-09-17T00:36:04.436Z,23.90
2022-09-17T00:38:31.738Z,24.00
2022-09-17T00:40:58.491Z,23.90
2022-09-17T00:43:55.894Z,23.90
2022-09-17T00:46:43.346Z,23.90
2022-09-17T00:49:30.644Z,23.90
2022-09-17T00:52:09.963Z,23.80
2022-09-17T00:54:42.576Z,23.80
2022-09-17T00:57:09.548Z,23.80
2022-09-17T00:59:37.115Z,23.80
2022-09-17T01:02:04.912Z,23.80
2022-09-17T01:04:31.725Z,23.80
2022-09-17T01:07:11.238Z,23.80
2022-09-17T01:09:45.943Z,23.80
2022-09-17T01:12:35.098Z,23.80
2022-09-17T01:15:10.761Z,23.80
2022-09-17T01:17:59.614Z,23.80
2022-09-17T01:21:03.745Z,23.80
2022-09-17T01:23:58.558Z,23.70
2022-09-17T01:26:49.422Z,23.80
2022-09-17T01:29:46.755Z,23.70
2022-09-17T01:32:39.400Z,23.70
2022-09-17T01:35:19.242Z,23.70
2022-09-17T01:38:14.314Z,23.70
2022-09-17T01:41:09.467Z,23.70
2022-09-17T01:43:56.851Z,23.80
2022-09-17T01:46:31.161Z,23.70
2022-09-17T01:49:02.056Z,23.70
2022-09-17T01:51:37.606Z,23.70
2022-09-17T01:54:28.581Z,23.70
2022-09-17T01:56:58.216Z,23.70
2022-09-17T01:59:31.488Z,23.70
2022-09-17T02:02:06.990Z,23.70
2022-09-17T02:04:41.196Z,23.60
2022-09-17T02:07:14.441Z,23.60
2022-09-17T02:09:46.510Z,23.60
2022-09-17T02:12:20.899Z,23.70
2022-09-17T02:14:54.528Z,23.60
2022-09-17T02:17:23.893Z,23.60
2022-09-17T02:19:51.176Z,23.60
2022-09-17T02:22:44.679Z,23.70
2022-09-17T02:25:34.425Z,23.70
2022-09-17T02:28:03.566Z,23.60
2022-09-17T02:30:32.148Z,23.60
2022-09-17T02:32:59.770Z,23.50
2022-09-17T02:35:26.661Z,23.50
2022-09-17T02:37:53.460Z,23.50
2022-09-17T02:40:27.856Z,23.50
2022-09-17T02:43:03.792Z,23.50
2022-09-17T02:45:46.270Z,23.50
2022-09-17T02:48:21.364Z,23.40
2022-09-17T02:51:16.208Z,23.40
2022-09-17T02:53:51.953Z,23.50
2022-09-17T02:56:40.551Z,23.30
2022-09-17T02:59:22.912Z,23.40
2022-09-17T03:01:58.652Z,23.30
2022-09-17T03:04:28.756Z,23.30
2022-09-17T03:06:56.081Z,23.20
2022-09-17T03:09:22.858Z,23.20
2022-09-17T03:11:49.638Z,23.20
2022-09-17T03:14:16.807Z,23.20
2022-09-17T03:16:43.735Z,23.10
2022-09-17T03:19:10.442Z,23.10
2022-09-17T03:21:37.182Z,23.20
2022-09-17T03:24:04.220Z,23.20
2022-09-17T03:26:30.960Z,23.10
2022-09-17T03:28:59.131Z,23.10
2022-09-17T03:31:26.033Z,23.10
2022-09-17T03:33:52.877Z,23.10
2022-09-17T03:36:19.648Z,23.10
2022-09-17T03:38:46.413Z,23.10
2022-09-17T03:41:13.240Z,23.00
2022-09-17T03:43:39.989Z,22.90
2022-09-17T03:46:07.117Z,23.00
2022-09-17T03:48:37.104Z,23.00
2022-09-17T03:51:04.220Z,22.90
2022-09-17T03:53:31.844Z,22.90
2022-09-17T03:56:00.404Z,22.90
2022-09-17T03:58:28.275Z,22.90
2022-09-17T04:00:57.837Z,23.00
2022-09-17T04:03:25.742Z,22.90
2022-09-17T04:05:52.668Z,22.90
2022-09-17T04:08:19.730Z,22.90
2022-09-17T04:10:47.510Z,22.80
2022-09-17T04:13:16.829Z,22.80
2022-09-17T04:15:44.390Z,22.70
2022-09-17T04:18:11.195Z,22.80
2022-09-17T04:20:38.016Z,22.80
2022-09-17T04:23:09.620Z,22.70
2022-09-17T04:25:36.320Z,22.70
2022-09-17T04:28:03.173Z,22.60
2022-09-17T04:30:30.112Z,22.60
2022-09-17T04:32:56.824Z,22.50
2022-09-17T04:35:23.552Z,22.60
2022-09-17T04:37:55.263Z,22.60
2022-09-17T04:40:23.242Z,22.60
2022-09-17T04:42:54.140Z,22.60
2022-09-17T04:45:21.863Z,22.60
2022-09-17T04:47:50.902Z,22.60
2022-09-17T04:50:20.840Z,22.60
2022-09-17T04:52:48.339Z,22.60
2022-09-17T04:55:16.047Z,22.60
2022-09-17T04:57:50.801Z,22.50
2022-09-17T05:00:19.216Z,22.60
2022-09-17T05:02:47.944Z,22.60
2022-09-17T05:05:16.222Z,22.60
2022-09-17T05:07:43.494Z,22.60
2022-09-17T05:10:11.840Z,22.60
2022-09-17T05:12:38.887Z,22.50
2022-09-17T05:15:06.848Z,22.60
2022-09-17T05:17:33.623Z,22.50
2022-09-17T05:20:00.386Z,22.50
2022-09-17T05:22:27.130Z,22.50
2022-09-17T05:24:53.899Z,22.50
2022-09-17T05:27:20.711Z,22.50
2022-09-17T05:29:47.504Z,22.50
2022-09-17T05:32:14.267Z,22.40
2022-09-17T05:34:41.521Z,22.50
2022-09-17T05:37:11.323Z,22.60
2022-09-17T05:39:38.194Z,22.50
2022-09-17T05:42:05.191Z,22.60
2022-09-17T05:44:31.932Z,22.60
2022-09-17T05:46:59.263Z,22.60
2022-09-17T05:49:26.083Z,22.70
2022-09-17T05:51:52.982Z,22.70
2022-09-17T05:54:19.811Z,22.70
2022-09-17T05:56:46.639Z,22.70
2022-09-17T05:59:14.710Z,22.80
2022-09-17T06:01:42.489Z,22.80
2022-09-17T06:04:09.672Z,22.80
2022-09-17T06:06:37.876Z,22.90
2022-09-17T06:09:06.043Z,22.90
2022-09-17T06:11:32.934Z,22.90
2022-09-17T06:14:00.252Z,23.10
2022-09-17T06:16:28.446Z,23.20
2022-09-17T06:18:55.407Z,23.20
2022-09-17T06:21:23.012Z,23.30
2022-09-17T06:23:50.799Z,23.30
2022-09-17T06:26:18.706Z,23.30
2022-09-17T06:28:46.009Z,23.30
2022-09-17T06:31:14.316Z,23.30
2022-09-17T06:33:41.311Z,23.30
2022-09-17T06:36:14.136Z,23.20
2022-09-17T06:38:42.219Z,23.20
2022-09-17T06:41:09.153Z,23.20
2022-09-17T06:43:36.046Z,23.20
2022-09-17T06:46:06.226Z,23.20
2022-09-17T06:48:35.063Z,23.10
2022-09-17T06:51:06.612Z,23.10
2022-09-17T06:53:33.764Z,23.10
2022-09-17T06:56:06.322Z,23.10
2022-09-17T06:58:37.152Z,23.10
2022-09-17T07:01:05.311Z,23.10
2022-09-17T07:03:32.522Z,23.20
2022-09-17T07:05:59.653Z,23.30
2022-09-17T07:08:26.492Z,23.30
2022-09-17T07:10:59.331Z,23.20
2022-09-17T07:13:26.513Z,23.30
2022-09-17T07:16:01.382Z,23.30
2022-09-17T07:18:28.332Z,23.40
2022-09-17T07:20:57.074Z,23.40
2022-09-17T07:23:32.042Z,23.50
2022-09-17T07:26:13.349Z,23.60
2022-09-17T07:28:40.780Z,23.60
2022-09-17T07:31:12.437Z,23.70
2022-09-17T07:33:42.625Z,23.80
2022-09-17T07:36:12.510Z,23.80
2022-09-17T07:38:39.671Z,23.90
2022-09-17T07:41:14.920Z,24.00
2022-09-17T07:43:42.608Z,24.00
2022-09-17T07:46:15.011Z,24.10
2022-09-17T07:48:42.203Z,24.10
2022-09-17T07:51:10.299Z,24.20
2022-09-17T07:53:37.059Z,24.10
2022-09-17T07:56:04.656Z,24.20
2022-09-17T07:58:35.989Z,24.30
2022-09-17T08:01:04.178Z,24.50
2022-09-17T08:03:31.107Z,24.60
2022-09-17T08:06:08.914Z,24.70
2022-09-17T08:08:36.818Z,24.90
2022-09-17T08:11:08.686Z,25.00
2022-09-17T08:13:35.608Z,25.00
2022-09-17T08:16:07.974Z,25.20
2022-09-17T08:18:35.685Z,25.00
2022-09-17T08:21:05.259Z,24.90
2022-09-17T08:23:34.620Z,24.80
2022-09-17T08:26:01.771Z,24.60
2022-09-17T08:28:30.707Z,24.40
2022-09-17T08:31:02.619Z,24.20
2022-09-17T08:33:38.295Z,24.10
2022-09-17T08:36:07.148Z,23.80
2022-09-17T08:38:38.583Z,23.50
2022-09-17T08:41:19.233Z,23.20
2022-09-17T08:44:04.859Z,22.90
2022-09-17T08:46:45.131Z,22.60
2022-09-17T08:49:33.624Z,22.20
2022-09-17T08:52:34.403Z,21.80
2022-09-17T08:55:17.888Z,21.40
2022-09-17T08:58:22.212Z,21.00
2022-09-17T09:01:14.840Z,20.80
2022-09-17T09:04:12.912Z,20.50
2022-09-17T09:07:04.200Z,20.40
2022-09-17T09:10:15.521Z,20.10
2022-09-17T09:12:44.514Z,20.00
2022-09-17T09:15:41.021Z,19.90
2022-09-17T09:18:20.482Z,19.80
2022-09-17T09:20:58.561Z,19.80
2022-09-17T09:23:50.715Z,19.70
2022-09-17T09:26:22.808Z,19.60
2022-09-17T09:29:05.839Z,19.50
2022-09-17T09:31:51.422Z,19.60
2022-09-17T09:34:18.771Z,19.50
2022-09-17T09:36:46.306Z,19.50
2022-09-17T09:39:26.055Z,19.40
2022-09-17T09:41:59.445Z,19.50
2022-09-17T09:44:26.780Z,19.40
2022-09-17T09:47:13.364Z,19.40
2022-09-17T09:50:02.719Z,19.60
2022-09-17T09:52:58.713Z,19.70
2022-09-17T09:55:26.860Z,19.80
2022-09-17T09:58:26.493Z,19.80
2022-09-17T10:00:53.278Z,19.80
2022-09-17T10:03:27.866Z,19.80
2022-09-17T10:06:01.049Z,19.70
2022-09-17T10:08:30.802Z,19.70
2022-09-17T10:11:20.770Z,19.80
2022-09-17T10:13:47.704Z,19.80
2022-09-17T10:16:25.274Z,19.80
2022-09-17T10:19:04.218Z,19.90
2022-09-17T10:21:42.083Z,19.90
2022-09-17T10:24:30.107Z,20.00
2022-09-17T10:27:06.797Z,20.10
2022-09-17T10:29:34.499Z,20.10
2022-09-17T10:32:02.719Z,20.20
2022-09-17T10:34:32.735Z,20.20
2022-09-17T10:36:59.698Z,20.20
2022-09-17T10:39:44.565Z,20.40
2022-09-17T10:42:11.355Z,20.40
2022-09-17T10:44:38.881Z,20.50
2022-09-17T10:47:18.836Z,20.50
2022-09-17T10:49:53.517Z,20.60
2022-09-17T10:52:27.744Z,20.60
2022-09-17T10:55:20.406Z,20.80
2022-09-17T10:57:56.028Z,20.80
2022-09-17T11:00:23.862Z,20.90
2022-09-17T11:03:28.535Z,20.90
2022-09-17T11:06:23.890Z,20.90
2022-09-17T11:09:08.777Z,20.90
2022-09-17T11:11:55.613Z,20.80
2022-09-17T11:14:38.046Z,20.90
2022-09-17T11:17:27.412Z,20.80
2022-09-17T11:20:24.029Z,20.90
2022-09-17T11:23:12.615Z,20.80
2022-09-17T11:26:00.671Z,20.70
2022-09-17T11:28:55.129Z,20.70
2022-09-17T11:31:41.130Z,20.80
2022-09-17T11:34:37.942Z,20.80
2022-09-17T11:37:51.659Z,20.90
2022-09-17T11:40:24.333Z,21.10
2022-09-17T11:43:03.316Z,21.20
2022-09-17T11:45:41.275Z,21.40
2022-09-17T11:48:17.057Z,21.50
2022-09-17T11:50:45.647Z,21.60
2022-09-17T11:53:15.131Z,21.70
2022-09-17T11:55:47.835Z,21.80
2022-09-17T11:58:48.005Z,21.80
2022-09-17T12:01:37.137Z,21.80
2022-09-17T12:04:38.111Z,22.00
2022-09-17T12:07:17.674Z,22.00
2022-09-17T12:09:49.510Z,22.00
2022-09-17T12:12:47.593Z,22.10
2022-09-17T12:15:20.362Z,22.20
2022-09-17T12:18:33.882Z,22.20
2022-09-17T12:21:04.589Z,22.40
2022-09-17T12:23:45.979Z,22.50
2022-09-17T12:26:35.074Z,22.90
2022-09-17T12:29:20.677Z,23.70
2022-09-17T12:31:58.412Z,24.20
2022-09-17T12:34:51.799Z,24.80
2022-09-17T12:37:26.212Z,25.50
2022-09-17T12:40:17.794Z,26.20
2022-09-17T12:43:11.410Z,26.90
2022-09-17T12:45:57.653Z,27.70
2022-09-17T12:48:42.384Z,28.60
2022-09-17T12:51:09.096Z,29.70
2022-09-17T12:53:48.978Z,31.00
2022-09-17T12:56:43.312Z,32.30
2022-09-17T12:59:11.166Z,33.60
2022-09-17T13:01:47.498Z,34.50
2022-09-17T13:05:00.485Z,35.60
2022-09-17T13:07:56.771Z,36.60
2022-09-17T13:10:49.884Z,36.40
2022-09-17T13:13:42.689Z,36.50
2022-09-17T13:16:23.917Z,37.00
2022-09-17T13:18:59.602Z,37.50
2022-09-17T13:22:00.438Z,38.30
2022-09-17T13:24:31.166Z,39.10
2022-09-17T13:27:01.283Z,39.50
2022-09-17T13:29:48.694Z,40.10
2022-09-17T13:32:49.574Z,40.60
2022-09-17T13:35:16.239Z,40.70
2022-09-17T13:38:01.795Z,40.60
2022-09-17T13:40:36.405Z,40.90
2022-09-17T13:43:14.375Z,40.80
2022-09-17T13:45:59.473Z,40.80
2022-09-17T13:48:29.734Z,40.70
2022-09-17T13:50:57.092Z,40.50
2022-09-17T13:53:27.985Z,40.30
2022-09-17T13:55:58.651Z,40.30
2022-09-17T13:58:32.566Z,39.50
2022-09-17T14:01:03.434Z,38.00
2022-09-17T14:03:56.628Z,36.50
2022-09-17T14:06:23.423Z,34.70
2022-09-17T14:08:54.633Z,33.30
2022-09-17T14:11:25.327Z,32.30
2022-09-17T14:14:09.128Z,31.50
2022-09-17T14:16:47.083Z,30.70
2022-09-17T14:19:29.015Z,30.10
2022-09-17T14:22:00.465Z,29.50
2022-09-17T14:24:34.167Z,29.00
2022-09-17T14:27:41.459Z,28.60
2022-09-17T14:30:31.774Z,28.20
2022-09-17T14:33:01.306Z,27.80
2022-09-17T14:35:46.045Z,27.60
2022-09-17T14:38:33.339Z,27.50
2022-09-17T14:41:07.432Z,27.50
2022-09-17T14:43:56.353Z,27.30
2022-09-17T14:46:28.638Z,27.20
2022-09-17T14:48:55.509Z,27.00
2022-09-17T14:51:25.529Z,26.70
2022-09-17T14:54:05.691Z,26.60
2022-09-17T14:56:34.893Z,26.40
2022-09-17T14:59:02.363Z,26.20
2022-09-17T15:01:31.172Z,26.10
2022-09-17T15:04:12.975Z,25.90
2022-09-17T15:06:40.679Z,25.80
2022-09-17T15:09:19.608Z,25.60
2022-09-17T15:11:50.005Z,25.50
2022-09-17T15:14:23.552Z,25.30
2022-09-17T15:16:53.961Z,25.20
2022-09-17T15:19:33.403Z,25.00
2022-09-17T15:22:07.189Z,24.90
2022-09-17T15:24:55.457Z,24.80
2022-09-17T15:30:24.287Z,24.50
2022-09-17T15:32:52.552Z,24.50
2022-09-17T15:35:23.272Z,24.30
2022-09-17T15:40:41.427Z,24.20
2022-09-17T15:43:33.561Z,24.10
2022-09-17T15:46:32.023Z,24.10
2022-09-17T15:49:03.793Z,23.90
2022-09-17T15:51:34.613Z,23.90
2022-09-17T15:54:05.045Z,23.80
2022-09-17T15:56:38.495Z,23.70
2022-09-17T15:59:23.906Z,23.60
2022-09-17T16:01:53.994Z,23.60
2022-09-17T16:04:23.907Z,23.50
2022-09-17T16:06:55.156Z,23.50
2022-09-17T16:09:49.907Z,23.50
2022-09-17T16:12:36.934Z,23.40
2022-09-17T16:15:05.492Z,23.30
2022-09-17T16:17:47.460Z,23.20
2022-09-17T16:20:25.092Z,23.20
2022-09-17T16:22:53.221Z,23.20
2022-09-17T16:25:25.727Z,23.10
2022-09-17T16:27:54.402Z,23.10
2022-09-17T16:30:23.237Z,23.00
2022-09-17T16:32:50.693Z,23.00
2022-09-17T16:35:19.962Z,22.90
2022-09-17T16:37:51.416Z,22.80
2022-09-17T16:40:19.439Z,22.80
2022-09-17T16:42:46.738Z,22.80
2022-09-17T16:45:13.973Z,22.80
2022-09-17T16:47:42.164Z,22.70
2022-09-17T16:50:14.571Z,22.70
2022-09-17T16:52:41.852Z,22.60
2022-09-17T16:55:09.200Z,22.60
2022-09-17T16:57:35.951Z,22.60
2022-09-17T17:00:04.151Z,22.50
2022-09-17T17:02:30.962Z,22.50
2022-09-17T17:04:57.779Z,22.50
2022-09-17T17:07:24.581Z,22.40
2022-09-17T17:09:51.410Z,22.30
2022-09-17T17:12:18.231Z,22.30
2022-09-17T17:14:49.888Z,22.30
2022-09-17T17:17:17.872Z,22.20
2022-09-17T17:19:46.559Z,22.20
2022-09-17T17:22:14.235Z,22.10
2022-09-17T17:24:41.506Z,22.00
2022-09-17T17:27:09.660Z,22.00
2022-09-17T17:29:36.676Z,21.90
2022-09-17T17:32:05.121Z,21.90
2022-09-17T17:34:32.362Z,21.80
2022-09-17T17:36:59.469Z,21.80
2022-09-17T17:39:26.411Z,21.70
2022-09-17T17:41:56.342Z,21.70
2022-09-17T17:44:23.140Z,21.60
2022-09-17T17:46:49.974Z,21.50
2022-09-17T17:49:17.061Z,21.50
2022-09-17T17:51:45.027Z,21.50
2022-09-17T17:54:11.868Z,21.40
2022-09-17T17:56:38.714Z,21.40
2022-09-17T17:59:05.538Z,21.40
2022-09-17T18:01:35.125Z,21.30
2022-09-17T18:04:03.959Z,21.30
2022-09-17T18:06:31.031Z,21.20
2022-09-17T18:08:58.016Z,21.10
2022-09-17T18:11:25.324Z,21.20
2022-09-17T18:13:57.265Z,21.10
2022-09-17T18:16:24.624Z,21.10
2022-09-17T18:18:51.439Z,21.00
2022-09-17T18:21:20.941Z,21.10
2022-09-17T18:23:48.531Z,20.90
2022-09-17T18:26:17.903Z,20.90
2022-09-17T18:28:44.986Z,21.00
2022-09-17T18:31:23.785Z,20.80
2022-09-17T18:34:05.611Z,20.80
2022-09-17T18:36:34.706Z,20.80
2022-09-17T18:41:52.760Z,20.60
2022-09-17T18:44:21.818Z,20.70
2022-09-17T18:46:50.291Z,20.60
2022-09-17T18:49:17.507Z,20.50
2022-09-17T18:51:44.431Z,20.60
2022-09-17T18:54:12.881Z,20.50
2022-09-17T18:56:41.509Z,20.60
2022-09-17T18:59:08.642Z,20.50
2022-09-17T19:01:35.662Z,20.40
2022-09-17T19:04:03.275Z,20.40
2022-09-17T19:06:32.348Z,20.30
2022-09-17T19:09:01.175Z,20.30
2022-09-17T19:11:28.343Z,20.30
2022-09-17T19:13:55.118Z,20.30
2022-09-17T19:16:22.408Z,20.20
2022-09-17T19:18:49.423Z,20.10
2022-09-17T19:21:23.370Z,20.20
2022-09-17T19:23:51.038Z,20.10
2022-09-17T19:26:23.895Z,20.10
2022-09-17T19:28:55.035Z,19.90
2022-09-17T19:31:22.605Z,19.90
2022-09-17T19:33:50.529Z,20.00
2022-09-17T19:36:18.411Z,20.00
2022-09-17T19:38:46.208Z,20.00
2022-09-17T19:41:16.244Z,19.90
2022-09-17T19:43:45.221Z,19.90
2022-09-17T19:46:14.417Z,19.80
2022-09-17T19:48:55.682Z,19.80
2022-09-17T19:51:24.327Z,19.80
2022-09-17T19:53:52.514Z,19.80
2022-09-17T19:56:22.665Z,19.80
2022-09-17T19:58:50.047Z,19.80
2022-09-17T20:01:17.472Z,19.70
2022-09-17T20:03:45.512Z,19.80
2022-09-17T20:06:15.716Z,19.70
2022-09-17T20:08:47.429Z,19.70
2022-09-17T20:11:15.438Z,19.60
2022-09-17T20:13:42.416Z,19.70
2022-09-17T20:16:11.816Z,19.70
2022-09-17T20:18:39.349Z,19.70
2022-09-17T20:21:10.479Z,19.60
2022-09-17T20:23:37.309Z,19.60
2022-09-17T20:26:05.049Z,19.60
2022-09-17T20:28:32.309Z,19.50
2022-09-17T20:31:08.394Z,19.60
2022-09-17T20:33:35.252Z,19.50
2022-09-17T20:36:04.675Z,19.40
2022-09-17T20:39:10.051Z,19.50
2022-09-17T20:41:20.699Z,19.40
2022-09-17T20:43:52.435Z,19.30
2022-09-17T20:46:24.773Z,19.40
2022-09-17T20:48:55.412Z,19.40
2022-09-17T20:51:25.908Z,19.30
2022-09-17T20:53:52.748Z,19.30
2022-09-17T20:56:25.637Z,19.30
2022-09-17T20:59:08.591Z,19.20
2022-09-17T21:01:37.634Z,19.20
2022-09-17T21:04:07.465Z,19.20
2022-09-17T21:06:37.915Z,19.20
2022-09-17T21:09:10.295Z,19.10
2022-09-17T21:11:37.122Z,19.10
2022-09-17T21:14:04.623Z,19.10
2022-09-17T21:16:32.045Z,19.10
2022-09-17T21:19:01.860Z,19.00
2022-09-17T21:21:29.149Z,19.10
2022-09-17T21:24:01.094Z,19.00
2022-09-17T21:26:28.766Z,18.90
2022-09-17T21:28:57.005Z,19.00
2022-09-17T21:31:33.032Z,19.00
2022-09-17T21:34:08.469Z,18.90
2022-09-17T21:36:37.454Z,18.90
2022-09-17T21:39:07.050Z,18.80
2022-09-17T21:41:35.739Z,18.80
2022-09-17T21:44:06.017Z,18.80
2022-09-17T21:46:35.692Z,18.80
2022-09-17T21:49:03.586Z,18.80
2022-09-17T21:51:34.042Z,18.70
2022-09-17T21:54:04.033Z,18.70
2022-09-17T21:56:31.485Z,18.80
2022-09-17T21:59:01.268Z,18.70
2022-09-17T22:01:32.208Z,18.70
2022-09-17T22:04:01.362Z,18.70
2022-09-17T22:06:30.256Z,18.60
2022-09-17T22:08:58.713Z,18.60
2022-09-17T22:11:35.008Z,18.60
2022-09-17T22:14:08.969Z,18.70
2022-09-17T22:16:39.867Z,18.60
2022-09-17T22:19:07.895Z,18.60
2022-09-17T22:21:36.752Z,18.60
2022-09-17T22:24:05.502Z,18.50
2022-09-17T22:26:34.982Z,18.50
2022-09-17T22:29:07.055Z,18.50
2022-09-17T22:31:34.306Z,18.50
2022-09-17T22:34:01.657Z,18.40
2022-09-17T22:36:29.093Z,18.40
2022-09-17T22:38:58.621Z,18.40
2022-09-17T22:41:26.975Z,18.30
2022-09-17T22:44:02.328Z,18.30
2022-09-17T22:46:39.311Z,18.20
2022-09-17T22:49:10.253Z,18.20
2022-09-17T22:51:37.106Z,18.20
2022-09-17T22:54:04.293Z,18.20
2022-09-17T22:56:31.136Z,18.10
2022-09-17T22:58:58.665Z,18.10
2022-09-17T23:01:31.217Z,18.10
2022-09-17T23:03:59.635Z,18.10
2022-09-17T23:06:29.880Z,18.00
2022-09-17T23:08:57.509Z,18.00
2022-09-17T23:11:27.735Z,18.00
2022-09-17T23:13:58.084Z,18.00
2022-09-17T23:16:25.616Z,17.90
2022-09-17T23:18:52.468Z,17.90
2022-09-17T23:21:20.018Z,17.80
2022-09-17T23:23:49.554Z,17.90
2022-09-17T23:26:19.737Z,17.70
2022-09-17T23:28:47.720Z,17.80
2022-09-17T23:31:17.468Z,17.70
2022-09-17T23:33:45.068Z,17.70
2022-09-17T23:36:14.497Z,17.60
2022-09-17T23:38:43.248Z,17.70
2022-09-17T23:41:22.651Z,17.60
2022-09-17T23:43:54.580Z,17.60
2022-09-17T23:46:22.923Z,17.60
2022-09-17T23:48:51.302Z,17.60
2022-09-17T23:51:18.164Z,17.70
2022-09-17T23:53:45.091Z,17.50
2022-09-17T23:56:13.979Z,17.50
2022-09-17T23:58:41.349Z,17.40
